AirNav   Air Wisconsin Up To $57,000 Bonus
 
 1679 users online  

7MI3 Thrall Lake Airport
Vicksburg, Michigan, USA

GOING TO VICKSBURG?


FAA INFORMATION EFFECTIVE 26 JANUARY 2023

Location

FAA Identifier: 7MI3
Lat/Long: 42-07-00.1650N 085-30-59.9870W
42-07.002750N 085-30.999783W
42.1167125,-85.5166631
(estimated)
Elevation: 850 ft. / 259 m (estimated)
Variation: 03W (1985)
From city: 1 mile E of VICKSBURG, MI
Time zone: UTC -5 (UTC -4 during Daylight Saving Time)
Zip code: 49097

Airport Operations

Airport use: Private use. Permission required prior to landing
Activation date: 02/1982
Control tower: no
ARTCC: CHICAGO CENTER
FSS: LANSING FLIGHT SERVICE STATION
Attendance: IREG
Wind indicator: yes
Segmented circle: no

Airport Communications

WX ASOS at AZO (7 nm N): PHONE 269-459-3391
WX AWOS-3 at HAI (10 nm S): 119.975 (269-273-6705)
WX ASOS at BTL (16 nm NE): PHONE 269-964-0283
WX AWOS-3 at IRS (19 nm S): 121.325 (269-659-8715)

Nearby radio navigation aids

VOR radial/distance  VOR name  Freq  Var
AZOr168/7.4KALAMAZOO VOR/DME109.0001W
ELXr094/27.0KEELER VOR/DME116.6000E
PMMr129/33.5PULLMAN VOR/DME112.1000E
LFDr281/33.6LITCHFIELD VOR/DME111.2005W

 
NDB name  Hdg/Dist  Freq  Var  ID
AUSTNat field37103WAZ .- --..
STURGIS353/18.638204WIRS .. .-. ...

Airport Services

Runway Information

Runway 13/31

Dimensions: 3200 x 80 ft. / 975 x 24 m
Surface: turf
RUNWAY 13  RUNWAY 31
Traffic pattern: leftleft

Airport Ownership and Management from official FAA records

Ownership: Privately-owned
Owner: MATTHEW THORNE, CO-OWNER
5965 EAST W. AVE
VICKSBURG, MI 49097
Phone (269) 873-6779
Manager: JEFF TOMPKINS, CO-OWNER
9620 EAST SHORE DR
PORTAGE, MI 49002
Phone 269-327-9004

Airport Operational Statistics

Aircraft based on the field: 4
Single engine airplanes: 4
    

Additional Remarks

FOR CD CTC GREAT LAKES APCH AT 269-459-3344, WHEN APCH CLSD CTC CHICAGO ARTCC AT 630-906-8921.

Instrument Procedures

There are no published instrument procedures at 7MI3.

Some nearby airports with instrument procedures:

KAZO - Kalamazoo/Battle Creek International Airport (7 nm N)
KHAI - Three Rivers Municipal/Dr Haines Airport (10 nm S)
KBTL - Battle Creek Executive Airport at Kellogg Field (16 nm NE)
KIRS - Kirsch Municipal Airport (19 nm S)
KOEB - Branch County Memorial Airport (23 nm SE)
 
Loc | Ops | Rwys | IFR | FBO | Links
Com | Nav | Svcs | Stats | Notes
Area around 7MI3 (Thrall Lake Airport)
 
Road maps at: MapQuest Bing Google
 
Aerial photo
WARNING: Photo may not be current or correct
Aerial photo of 7MI3 (Thrall Lake Airport)
Photo by Kurt Wien
Taken in the Spring of 2016

Do you have a better or more recent aerial photo of Thrall Lake Airport that you would like to share? If so, please send us your photo.

 
Sectional chart

 
Airport distance calculator
Flying to Thrall Lake Airport? Find the distance to fly.

From to 7MI3

Sunrise and sunset
Times for 02-Feb-2023
 Local
(UTC-5)
 Zulu
(UTC)
Morning civil twilight07:2612:26
Sunrise07:5512:55
Sunset17:5722:57
Evening civil twilight18:2623:26

Current date and time
Zulu (UTC)  02-Feb-2023 19:14:20
Local (UTC-5)  02-Feb-2023 14:14:20
 
METAR
KAZO 
7nm N 
021853Z 26019G26KT 10SM CLR 01/M07 A2998 RMK AO2 PK WND 27026/1853 SLP164 T00061072
KHAI 
10nm S 
021855Z AUTO 25009KT 10SM CLR 00/M07 A2999 RMK AO2 T00041075
KBTL 
17nm NE 
021853Z 24016G25KT 10SM CLR M01/M08 A2996 RMK AO2 SLP160 T10061078 $
KIRS 
19nm S 
021855Z AUTO 25012KT 10SM CLR 00/M07 A2998 RMK AO2 T10051072
TAF
KAZO 
7nm N 
021739Z 0218/0318 26015G23KT P6SM SCT025 TEMPO 0222/0223 3SM -SHSN BKN025 FM022300 29012G18KT P6SM BKN025 FM030300 32015KT P6SM VCSH OVC035
KBTL 
17nm NE 
021739Z 0218/0318 25015G23KT P6SM SCT025 TEMPO 0221/0223 3SM -SHSN BKN025 FM022300 29012G18KT P6SM BKN025 FM030300 32015KT P6SM VCSH OVC035
NOTAMs
Click for the latest NOTAMs
NOTAMs are issued by the DoD/FAA and will open in a separate window not controlled by AirNav.

 

 
 

Would you like to see your business listed on this page?

 If your business provides an interesting product or service to pilots, flight crews, aircraft, or users of the Thrall Lake Airport, you should consider listing it here.  To start the listing process, click on the button below
 
Add a business
 

Other Pages about Thrall Lake Airport

Update a link
 
Copyright © AirNav, LLC. All rights reserved. Privacy Policy  Contact